sensor_id;sensor_type;location;lat;lon;timestamp;temperature;humidity
17152;DHT22;8691;50.828;4.700;2023-03-23T00:01:43;12.90;99.90
17152;DHT22;8691;50.828;4.700;2023-03-23T00:04:20;13.00;99.90
17152;DHT22;8691;50.828;4.700;2023-03-23T00:06:57;13.00;99.90
17152;DHT22;8691;50.828;4.700;2023-03-23T00:09:34;13.00;99.90
17152;DHT22;8691;50.828;4.700;2023-03-23T00:12:11;13.00;99.90
17152;DHT22;8691;50.828;4.700;2023-03-23T00:14:47;13.00;99.90
17152;DHT22;8691;50.828;4.700;2023-03-23T00:17:24;13.10;99.90
17152;DHT22;8691;50.828;4.700;2023-03-23T00:20:01;13.00;99.90
17152;DHT22;8691;50.828;4.700;2023-03-23T00:22:38;13.00;99.90
17152;DHT22;8691;50.828;4.700;2023-03-23T00:25:14;13.00;99.90
17152;DHT22;8691;50.828;4.700;2023-03-23T00:27:51;13.10;99.90
17152;DHT22;8691;50.828;4.700;2023-03-23T00:30:28;13.10;99.90
17152;DHT22;8691;50.828;4.700;2023-03-23T00:33:04;13.10;99.90
17152;DHT22;8691;50.828;4.700;2023-03-23T00:35:41;13.00;99.90
17152;DHT22;8691;50.828;4.700;2023-03-23T00:38:18;13.00;99.90
17152;DHT22;8691;50.828;4.700;2023-03-23T00:40:54;13.00;99.90
17152;DHT22;8691;50.828;4.700;2023-03-23T00:43:31;12.90;99.90
17152;DHT22;8691;50.828;4.700;2023-03-23T00:46:08;13.00;99.90
17152;DHT22;8691;50.828;4.700;2023-03-23T00:48:44;12.90;99.90
17152;DHT22;8691;50.828;4.700;2023-03-23T00:51:21;12.90;99.90
17152;DHT22;8691;50.828;4.700;2023-03-23T00:53:57;12.90;99.90
17152;DHT22;8691;50.828;4.700;2023-03-23T00:56:34;12.90;99.90
17152;DHT22;8691;50.828;4.700;2023-03-23T00:59:11;12.80;99.90
17152;DHT22;8691;50.828;4.700;2023-03-23T01:01:48;12.80;99.90
17152;DHT22;8691;50.828;4.700;2023-03-23T01:04:24;12.90;99.90
17152;DHT22;8691;50.828;4.700;2023-03-23T01:07:02;12.80;99.90
17152;DHT22;8691;50.828;4.700;2023-03-23T01:09:38;12.80;99.90
17152;DHT22;8691;50.828;4.700;2023-03-23T01:12:17;12.90;99.90
17152;DHT22;8691;50.828;4.700;2023-03-23T01:14:54;12.90;99.90
17152;DHT22;8691;50.828;4.700;2023-03-23T01:17:31;12.90;99.90
17152;DHT22;8691;50.828;4.700;2023-03-23T01:20:08;12.90;99.90
17152;DHT22;8691;50.828;4.700;2023-03-23T01:22:44;12.90;99.90
17152;DHT22;8691;50.828;4.700;2023-03-23T01:25:21;12.90;99.90
17152;DHT22;8691;50.828;4.700;2023-03-23T01:27:58;13.00;99.90
17152;DHT22;8691;50.828;4.700;2023-03-23T01:30:35;13.10;99.90
17152;DHT22;8691;50.828;4.700;2023-03-23T01:33:11;13.10;99.90
17152;DHT22;8691;50.828;4.700;2023-03-23T01:35:48;13.10;99.90
17152;DHT22;8691;50.828;4.700;2023-03-23T01:38:25;13.00;99.90
17152;DHT22;8691;50.828;4.700;2023-03-23T01:41:02;13.00;99.90
17152;DHT22;8691;50.828;4.700;2023-03-23T01:46:35;13.10;99.90
17152;DHT22;8691;50.828;4.700;2023-03-23T01:49:17;13.00;99.90
17152;DHT22;8691;50.828;4.700;2023-03-23T01:51:54;12.90;99.90
17152;DHT22;8691;50.828;4.700;2023-03-23T01:54:30;12.90;99.90
17152;DHT22;8691;50.828;4.700;2023-03-23T01:57:07;12.90;99.90
17152;DHT22;8691;50.828;4.700;2023-03-23T01:59:43;12.80;99.90
17152;DHT22;8691;50.828;4.700;2023-03-23T02:02:20;12.80;99.90
17152;DHT22;8691;50.828;4.700;2023-03-23T02:04:58;12.80;99.90
17152;DHT22;8691;50.828;4.700;2023-03-23T02:07:33;12.90;99.90
17152;DHT22;8691;50.828;4.700;2023-03-23T02:10:10;12.90;99.90
17152;DHT22;8691;50.828;4.700;2023-03-23T02:12:47;13.00;99.90
17152;DHT22;8691;50.828;4.700;2023-03-23T02:15:25;13.00;99.90
17152;DHT22;8691;50.828;4.700;2023-03-23T02:21:19;13.00;99.90
17152;DHT22;8691;50.828;4.700;2023-03-23T02:26:55;13.00;99.90
17152;DHT22;8691;50.828;4.700;2023-03-23T02:35:28;12.90;99.90
17152;DHT22;8691;50.828;4.700;2023-03-23T02:37:57;12.90;99.90
17152;DHT22;8691;50.828;4.700;2023-03-23T02:40:39;12.90;99.90
17152;DHT22;8691;50.828;4.700;2023-03-23T02:43:16;12.80;99.90
17152;DHT22;8691;50.828;4.700;2023-03-23T02:45:51;12.80;99.90
17152;DHT22;8691;50.828;4.700;2023-03-23T02:48:28;12.80;99.90
17152;DHT22;8691;50.828;4.700;2023-03-23T02:51:05;12.80;99.90
17152;DHT22;8691;50.828;4.700;2023-03-23T02:53:42;12.80;99.90
17152;DHT22;8691;50.828;4.700;2023-03-23T02:56:19;12.80;99.90
17152;DHT22;8691;50.828;4.700;2023-03-23T02:58:55;12.80;99.90
17152;DHT22;8691;50.828;4.700;2023-03-23T03:04:16;12.80;99.90
17152;DHT22;8691;50.828;4.700;2023-03-23T03:09:50;12.80;99.90
17152;DHT22;8691;50.828;4.700;2023-03-23T03:12:55;12.70;99.90
17152;DHT22;8691;50.828;4.700;2023-03-23T03:15:18;12.70;99.90
17152;DHT22;8691;50.828;4.700;2023-03-23T03:20:28;12.60;99.90
17152;DHT22;8691;50.828;4.700;2023-03-23T03:23:05;12.70;99.90
17152;DHT22;8691;50.828;4.700;2023-03-23T03:25:41;12.70;99.90
17152;DHT22;8691;50.828;4.700;2023-03-23T03:28:19;12.60;99.90
17152;DHT22;8691;50.828;4.700;2023-03-23T03:30:55;12.60;99.90
17152;DHT22;8691;50.828;4.700;2023-03-23T03:33:32;12.50;99.90
17152;DHT22;8691;50.828;4.700;2023-03-23T03:36:08;12.60;99.90
17152;DHT22;8691;50.828;4.700;2023-03-23T03:38:46;12.60;99.90
17152;DHT22;8691;50.828;4.700;2023-03-23T03:41:21;12.60;99.90
17152;DHT22;8691;50.828;4.700;2023-03-23T03:43:59;12.70;99.90
17152;DHT22;8691;50.828;4.700;2023-03-23T03:46:36;12.70;99.90
17152;DHT22;8691;50.828;4.700;2023-03-23T03:49:12;12.70;99.90
17152;DHT22;8691;50.828;4.700;2023-03-23T03:51:49;12.60;99.90
17152;DHT22;8691;50.828;4.700;2023-03-23T03:54:25;12.60;99.90
17152;DHT22;8691;50.828;4.700;2023-03-23T03:57:02;12.70;99.90
17152;DHT22;8691;50.828;4.700;2023-03-23T03:59:39;12.60;99.90
17152;DHT22;8691;50.828;4.700;2023-03-23T04:02:16;12.60;99.90
17152;DHT22;8691;50.828;4.700;2023-03-23T04:04:52;12.60;99.90
17152;DHT22;8691;50.828;4.700;2023-03-23T04:07:29;12.60;99.90
17152;DHT22;8691;50.828;4.700;2023-03-23T04:10:06;12.60;99.90
17152;DHT22;8691;50.828;4.700;2023-03-23T04:12:42;12.50;99.90
17152;DHT22;8691;50.828;4.700;2023-03-23T04:15:19;12.50;99.90
17152;DHT22;8691;50.828;4.700;2023-03-23T04:17:56;12.50;99.90
17152;DHT22;8691;50.828;4.700;2023-03-23T04:20:32;12.40;99.90
17152;DHT22;8691;50.828;4.700;2023-03-23T04:23:09;12.50;99.90
17152;DHT22;8691;50.828;4.700;2023-03-23T04:25:47;12.50;99.90
17152;DHT22;8691;50.828;4.700;2023-03-23T04:28:24;12.40;99.90
17152;DHT22;8691;50.828;4.700;2023-03-23T04:31:00;12.40;99.90
17152;DHT22;8691;50.828;4.700;2023-03-23T04:33:37;12.30;99.90
17152;DHT22;8691;50.828;4.700;2023-03-23T04:36:13;12.40;99.90
17152;DHT22;8691;50.828;4.700;2023-03-23T04:38:50;12.40;99.90
17152;DHT22;8691;50.828;4.700;2023-03-23T04:41:27;12.50;99.90
17152;DHT22;8691;50.828;4.700;2023-03-23T04:44:04;12.40;99.90
17152;DHT22;8691;50.828;4.700;2023-03-23T04:46:41;12.40;99.90
17152;DHT22;8691;50.828;4.700;2023-03-23T04:49:18;12.40;99.90
17152;DHT22;8691;50.828;4.700;2023-03-23T04:51:54;12.40;99.90
17152;DHT22;8691;50.828;4.700;2023-03-23T04:54:31;12.30;99.90
17152;DHT22;8691;50.828;4.700;2023-03-23T04:57:08;12.40;99.90
17152;DHT22;8691;50.828;4.700;2023-03-23T04:59:44;12.40;99.90
17152;DHT22;8691;50.828;4.700;2023-03-23T05:02:22;12.40;99.90
17152;DHT22;8691;50.828;4.700;2023-03-23T05:04:58;12.40;99.90
17152;DHT22;8691;50.828;4.700;2023-03-23T05:07:36;12.40;99.90
17152;DHT22;8691;50.828;4.700;2023-03-23T05:10:13;12.40;99.90
17152;DHT22;8691;50.828;4.700;2023-03-23T05:12:49;12.30;99.90
17152;DHT22;8691;50.828;4.700;2023-03-23T05:15:26;12.30;99.90
17152;DHT22;8691;50.828;4.700;2023-03-23T05:18:02;12.20;99.90
17152;DHT22;8691;50.828;4.700;2023-03-23T05:20:39;12.10;99.90
17152;DHT22;8691;50.828;4.700;2023-03-23T05:23:16;12.10;99.90
17152;DHT22;8691;50.828;4.700;2023-03-23T05:25:55;12.00;99.90
17152;DHT22;8691;50.828;4.700;2023-03-23T05:28:31;12.00;99.90
17152;DHT22;8691;50.828;4.700;2023-03-23T05:31:08;12.00;99.90
17152;DHT22;8691;50.828;4.700;2023-03-23T05:33:45;12.00;99.90
17152;DHT22;8691;50.828;4.700;2023-03-23T05:36:21;12.00;99.90
17152;DHT22;8691;50.828;4.700;2023-03-23T05:38:58;12.00;99.90
17152;DHT22;8691;50.828;4.700;2023-03-23T05:41:34;12.00;99.90
17152;DHT22;8691;50.828;4.700;2023-03-23T05:44:11;12.10;99.90
17152;DHT22;8691;50.828;4.700;2023-03-23T05:46:48;12.10;99.90
17152;DHT22;8691;50.828;4.700;2023-03-23T05:49:24;12.10;99.90
17152;DHT22;8691;50.828;4.700;2023-03-23T05:52:01;12.10;99.90
17152;DHT22;8691;50.828;4.700;2023-03-23T05:54:38;12.10;99.90
17152;DHT22;8691;50.828;4.700;2023-03-23T05:57:14;12.10;99.90
17152;DHT22;8691;50.828;4.700;2023-03-23T05:59:51;12.10;99.90
17152;DHT22;8691;50.828;4.700;2023-03-23T06:02:28;12.10;99.90
17152;DHT22;8691;50.828;4.700;2023-03-23T06:05:04;12.10;99.90
17152;DHT22;8691;50.828;4.700;2023-03-23T06:07:42;12.10;99.90
17152;DHT22;8691;50.828;4.700;2023-03-23T06:10:19;12.20;99.90
17152;DHT22;8691;50.828;4.700;2023-03-23T06:12:55;12.20;99.90
17152;DHT22;8691;50.828;4.700;2023-03-23T06:15:33;12.30;99.90
17152;DHT22;8691;50.828;4.700;2023-03-23T06:18:09;12.30;99.90
17152;DHT22;8691;50.828;4.700;2023-03-23T06:20:47;12.30;99.90
17152;DHT22;8691;50.828;4.700;2023-03-23T06:23:23;12.30;99.90
17152;DHT22;8691;50.828;4.700;2023-03-23T06:26:02;12.30;99.90
17152;DHT22;8691;50.828;4.700;2023-03-23T06:28:37;12.40;99.90
17152;DHT22;8691;50.828;4.700;2023-03-23T06:31:14;12.40;99.90
17152;DHT22;8691;50.828;4.700;2023-03-23T06:33:50;12.50;99.90
17152;DHT22;8691;50.828;4.700;2023-03-23T06:36:27;12.50;99.90
17152;DHT22;8691;50.828;4.700;2023-03-23T06:39:04;12.50;99.90
17152;DHT22;8691;50.828;4.700;2023-03-23T06:41:41;12.50;99.90
17152;DHT22;8691;50.828;4.700;2023-03-23T06:44:18;12.50;99.90
17152;DHT22;8691;50.828;4.700;2023-03-23T06:46:54;12.50;99.90
17152;DHT22;8691;50.828;4.700;2023-03-23T06:49:31;12.60;99.90
17152;DHT22;8691;50.828;4.700;2023-03-23T06:52:08;12.60;99.90
17152;DHT22;8691;50.828;4.700;2023-03-23T06:54:44;12.60;99.90
17152;DHT22;8691;50.828;4.700;2023-03-23T06:57:21;12.70;99.90
17152;DHT22;8691;50.828;4.700;2023-03-23T06:59:58;12.70;99.90
17152;DHT22;8691;50.828;4.700;2023-03-23T07:02:34;12.70;99.90
17152;DHT22;8691;50.828;4.700;2023-03-23T07:05:11;12.70;99.90
17152;DHT22;8691;50.828;4.700;2023-03-23T07:07:48;12.80;99.90
17152;DHT22;8691;50.828;4.700;2023-03-23T07:10:25;12.80;99.90
17152;DHT22;8691;50.828;4.700;2023-03-23T07:13:03;12.80;99.90
17152;DHT22;8691;50.828;4.700;2023-03-23T07:15:39;12.80;99.90
17152;DHT22;8691;50.828;4.700;2023-03-23T07:18:17;12.70;99.90
17152;DHT22;8691;50.828;4.700;2023-03-23T07:20:53;12.70;99.90
17152;DHT22;8691;50.828;4.700;2023-03-23T07:23:31;12.60;99.90
17152;DHT22;8691;50.828;4.700;2023-03-23T07:26:07;12.60;99.90
17152;DHT22;8691;50.828;4.700;2023-03-23T07:28:44;12.50;99.90
17152;DHT22;8691;50.828;4.700;2023-03-23T07:31:22;12.40;99.90
17152;DHT22;8691;50.828;4.700;2023-03-23T07:33:58;12.40;99.90
17152;DHT22;8691;50.828;4.700;2023-03-23T07:36:36;12.40;99.90
17152;DHT22;8691;50.828;4.700;2023-03-23T07:39:13;12.40;99.90
17152;DHT22;8691;50.828;4.700;2023-03-23T07:41:49;12.40;99.90
17152;DHT22;8691;50.828;4.700;2023-03-23T07:44:26;12.40;99.90
17152;DHT22;8691;50.828;4.700;2023-03-23T07:47:02;12.50;99.90
17152;DHT22;8691;50.828;4.700;2023-03-23T07:49:39;12.50;99.90
17152;DHT22;8691;50.828;4.700;2023-03-23T07:52:16;12.50;99.90
17152;DHT22;8691;50.828;4.700;2023-03-23T07:54:52;12.50;99.90
17152;DHT22;8691;50.828;4.700;2023-03-23T07:57:29;12.60;99.90
17152;DHT22;8691;50.828;4.700;2023-03-23T08:00:06;12.60;99.90
17152;DHT22;8691;50.828;4.700;2023-03-23T08:02:52;12.60;99.90
17152;DHT22;8691;50.828;4.700;2023-03-23T08:05:28;12.50;99.90
17152;DHT22;8691;50.828;4.700;2023-03-23T08:08:05;12.20;99.90
17152;DHT22;8691;50.828;4.700;2023-03-23T08:10:42;11.60;99.90
17152;DHT22;8691;50.828;4.700;2023-03-23T08:13:19;11.50;99.90
17152;DHT22;8691;50.828;4.700;2023-03-23T08:15:55;11.50;99.90
17152;DHT22;8691;50.828;4.700;2023-03-23T08:18:32;11.50;99.90
17152;DHT22;8691;50.828;4.700;2023-03-23T08:21:09;11.50;99.90
17152;DHT22;8691;50.828;4.700;2023-03-23T08:23:45;11.60;99.90
17152;DHT22;8691;50.828;4.700;2023-03-23T08:26:23;11.70;99.90
17152;DHT22;8691;50.828;4.700;2023-03-23T08:28:59;11.70;99.90
17152;DHT22;8691;50.828;4.700;2023-03-23T08:31:37;11.80;99.90
17152;DHT22;8691;50.828;4.700;2023-03-23T08:34:13;11.80;99.90
17152;DHT22;8691;50.828;4.700;2023-03-23T08:36:50;11.90;99.90
17152;DHT22;8691;50.828;4.700;2023-03-23T08:39:26;12.00;99.90
17152;DHT22;8691;50.828;4.700;2023-03-23T08:42:03;12.20;99.90
17152;DHT22;8691;50.828;4.700;2023-03-23T08:44:40;12.40;99.90
17152;DHT22;8691;50.828;4.700;2023-03-23T08:47:17;12.30;99.90
17152;DHT22;8691;50.828;4.700;2023-03-23T08:49:53;12.30;99.90
17152;DHT22;8691;50.828;4.700;2023-03-23T08:52:33;12.60;99.90
17152;DHT22;8691;50.828;4.700;2023-03-23T08:55:11;12.60;99.90
17152;DHT22;8691;50.828;4.700;2023-03-23T08:57:48;12.60;99.90
17152;DHT22;8691;50.828;4.700;2023-03-23T09:00:26;12.60;99.90
17152;DHT22;8691;50.828;4.700;2023-03-23T09:03:02;12.60;99.90
17152;DHT22;8691;50.828;4.700;2023-03-23T09:05:39;12.60;99.90
17152;DHT22;8691;50.828;4.700;2023-03-23T09:08:16;12.50;99.90
17152;DHT22;8691;50.828;4.700;2023-03-23T09:10:53;12.40;99.90
17152;DHT22;8691;50.828;4.700;2023-03-23T09:13:29;12.20;99.90
17152;DHT22;8691;50.828;4.700;2023-03-23T09:16:06;12.10;99.90
17152;DHT22;8691;50.828;4.700;2023-03-23T09:18:43;11.90;99.90
17152;DHT22;8691;50.828;4.700;2023-03-23T09:21:19;11.90;99.90
17152;DHT22;8691;50.828;4.700;2023-03-23T09:23:56;11.80;99.90
17152;DHT22;8691;50.828;4.700;2023-03-23T09:26:33;11.70;99.90
17152;DHT22;8691;50.828;4.700;2023-03-23T09:29:09;11.70;99.90
17152;DHT22;8691;50.828;4.700;2023-03-23T09:31:46;11.60;99.90
17152;DHT22;8691;50.828;4.700;2023-03-23T09:34:23;11.70;99.90
17152;DHT22;8691;50.828;4.700;2023-03-23T09:37:00;11.70;99.90
17152;DHT22;8691;50.828;4.700;2023-03-23T09:39:37;11.80;99.90
17152;DHT22;8691;50.828;4.700;2023-03-23T09:42:18;11.90;99.90
17152;DHT22;8691;50.828;4.700;2023-03-23T09:47:52;12.00;99.90
17152;DHT22;8691;50.828;4.700;2023-03-23T09:50:25;12.20;99.90
17152;DHT22;8691;50.828;4.700;2023-03-23T09:53:02;12.40;99.90
17152;DHT22;8691;50.828;4.700;2023-03-23T09:55:37;12.80;99.90
17152;DHT22;8691;50.828;4.700;2023-03-23T10:01:02;13.60;99.90
17152;DHT22;8691;50.828;4.700;2023-03-23T10:03:39;13.70;99.90
17152;DHT22;8691;50.828;4.700;2023-03-23T10:06:16;13.70;99.90
17152;DHT22;8691;50.828;4.700;2023-03-23T10:08:55;13.80;99.90
17152;DHT22;8691;50.828;4.700;2023-03-23T10:11:38;13.80;99.90
17152;DHT22;8691;50.828;4.700;2023-03-23T10:16:58;13.80;99.90
17152;DHT22;8691;50.828;4.700;2023-03-23T10:22:22;14.00;99.90
17152;DHT22;8691;50.828;4.700;2023-03-23T10:25:08;14.30;99.90
17152;DHT22;8691;50.828;4.700;2023-03-23T10:27:45;14.40;99.90
17152;DHT22;8691;50.828;4.700;2023-03-23T10:33:14;15.00;99.90
17152;DHT22;8691;50.828;4.700;2023-03-23T10:36:01;14.80;99.90
17152;DHT22;8691;50.828;4.700;2023-03-23T10:38:38;14.70;99.90
17152;DHT22;8691;50.828;4.700;2023-03-23T10:41:17;14.80;99.90
17152;DHT22;8691;50.828;4.700;2023-03-23T10:43:49;14.80;99.90
17152;DHT22;8691;50.828;4.700;2023-03-23T10:46:38;14.90;99.90
17152;DHT22;8691;50.828;4.700;2023-03-23T10:49:09;15.10;99.90
17152;DHT22;8691;50.828;4.700;2023-03-23T10:51:47;15.40;99.90
17152;DHT22;8691;50.828;4.700;2023-03-23T10:54:32;15.90;99.90
17152;DHT22;8691;50.828;4.700;2023-03-23T10:57:11;15.90;99.90
17152;DHT22;8691;50.828;4.700;2023-03-23T10:59:39;16.30;99.90
17152;DHT22;8691;50.828;4.700;2023-03-23T11:02:19;16.60;99.90
17152;DHT22;8691;50.828;4.700;2023-03-23T11:05:03;16.70;99.90
17152;DHT22;8691;50.828;4.700;2023-03-23T11:07:38;16.80;99.90
17152;DHT22;8691;50.828;4.700;2023-03-23T11:10:25;16.90;99.90
17152;DHT22;8691;50.828;4.700;2023-03-23T11:13:00;17.20;99.90
17152;DHT22;8691;50.828;4.700;2023-03-23T11:15:38;17.20;99.90
17152;DHT22;8691;50.828;4.700;2023-03-23T11:18:20;17.10;99.90
17152;DHT22;8691;50.828;4.700;2023-03-23T11:20:56;16.90;99.90
17152;DHT22;8691;50.828;4.700;2023-03-23T11:23:42;16.80;99.90
17152;DHT22;8691;50.828;4.700;2023-03-23T11:26:28;16.70;99.90
17152;DHT22;8691;50.828;4.700;2023-03-23T11:29:22;16.60;99.90
17152;DHT22;8691;50.828;4.700;2023-03-23T11:32:02;16.50;99.90
17152;DHT22;8691;50.828;4.700;2023-03-23T11:34:42;16.50;99.90
17152;DHT22;8691;50.828;4.700;2023-03-23T11:37:38;16.40;99.90
17152;DHT22;8691;50.828;4.700;2023-03-23T11:40:17;16.30;99.90
17152;DHT22;8691;50.828;4.700;2023-03-23T11:45:39;16.50;99.90
17152;DHT22;8691;50.828;4.700;2023-03-23T11:48:54;16.60;99.90
17152;DHT22;8691;50.828;4.700;2023-03-23T11:51:39;16.40;99.90
17152;DHT22;8691;50.828;4.700;2023-03-23T11:54:33;16.30;99.90
17152;DHT22;8691;50.828;4.700;2023-03-23T11:57:09;16.30;99.90
17152;DHT22;8691;50.828;4.700;2023-03-23T11:59:45;16.40;99.90
17152;DHT22;8691;50.828;4.700;2023-03-23T12:02:50;16.50;99.90
17152;DHT22;8691;50.828;4.700;2023-03-23T12:08:16;16.40;99.90
17152;DHT22;8691;50.828;4.700;2023-03-23T12:16:58;16.30;99.90
17152;DHT22;8691;50.828;4.700;2023-03-23T12:19:43;16.50;99.90
17152;DHT22;8691;50.828;4.700;2023-03-23T12:28:19;16.90;99.90
17152;DHT22;8691;50.828;4.700;2023-03-23T12:34:00;17.10;99.90
17152;DHT22;8691;50.828;4.700;2023-03-23T12:39:31;17.00;99.90
17152;DHT22;8691;50.828;4.700;2023-03-23T12:42:06;17.10;99.90
17152;DHT22;8691;50.828;4.700;2023-03-23T12:47:29;16.90;99.90
17152;DHT22;8691;50.828;4.700;2023-03-23T12:53:09;16.60;99.90
17152;DHT22;8691;50.828;4.700;2023-03-23T12:55:49;16.60;99.90
17152;DHT22;8691;50.828;4.700;2023-03-23T12:58:26;16.40;99.90
17152;DHT22;8691;50.828;4.700;2023-03-23T13:01:06;16.10;99.90
17152;DHT22;8691;50.828;4.700;2023-03-23T13:12:05;15.20;99.90
17152;DHT22;8691;50.828;4.700;2023-03-23T13:20:47;15.60;99.90
17152;DHT22;8691;50.828;4.700;2023-03-23T13:23:34;15.90;99.90
17152;DHT22;8691;50.828;4.700;2023-03-23T13:26:09;16.10;99.90
17152;DHT22;8691;50.828;4.700;2023-03-23T13:31:36;16.20;99.90
17152;DHT22;8691;50.828;4.700;2023-03-23T13:34:22;16.60;99.90
17152;DHT22;8691;50.828;4.700;2023-03-23T13:37:02;16.90;99.90
17152;DHT22;8691;50.828;4.700;2023-03-23T13:39:47;17.00;99.90
17152;DHT22;8691;50.828;4.700;2023-03-23T13:47:28;16.50;99.90
17152;DHT22;8691;50.828;4.700;2023-03-23T13:55:29;17.10;99.90
17152;DHT22;8691;50.828;4.700;2023-03-23T14:01:01;17.50;99.90
17152;DHT22;8691;50.828;4.700;2023-03-23T14:03:32;17.10;99.90
17152;DHT22;8691;50.828;4.700;2023-03-23T14:06:07;17.10;99.90
17152;DHT22;8691;50.828;4.700;2023-03-23T14:08:43;16.90;99.90
17152;DHT22;8691;50.828;4.700;2023-03-23T14:11:21;16.60;99.90
17152;DHT22;8691;50.828;4.700;2023-03-23T14:14:06;16.40;99.90
17152;DHT22;8691;50.828;4.700;2023-03-23T14:16:48;16.40;99.90
17152;DHT22;8691;50.828;4.700;2023-03-23T14:19:26;16.80;99.90
17152;DHT22;8691;50.828;4.700;2023-03-23T14:22:01;17.20;99.90
17152;DHT22;8691;50.828;4.700;2023-03-23T14:24:39;17.20;99.90
17152;DHT22;8691;50.828;4.700;2023-03-23T14:27:21;17.10;99.90
17152;DHT22;8691;50.828;4.700;2023-03-23T14:30:05;17.10;99.90
17152;DHT22;8691;50.828;4.700;2023-03-23T14:32:40;16.90;99.90
17152;DHT22;8691;50.828;4.700;2023-03-23T14:35:25;16.80;99.90
17152;DHT22;8691;50.828;4.700;2023-03-23T14:38:00;16.70;99.90
17152;DHT22;8691;50.828;4.700;2023-03-23T14:40:36;16.60;99.90
17152;DHT22;8691;50.828;4.700;2023-03-23T14:43:14;16.50;99.90
17152;DHT22;8691;50.828;4.700;2023-03-23T14:45:51;16.60;99.90
17152;DHT22;8691;50.828;4.700;2023-03-23T14:48:26;16.60;99.90
17152;DHT22;8691;50.828;4.700;2023-03-23T14:51:03;16.50;99.90
17152;DHT22;8691;50.828;4.700;2023-03-23T14:53:40;16.20;99.90
17152;DHT22;8691;50.828;4.700;2023-03-23T14:56:18;15.90;99.90
17152;DHT22;8691;50.828;4.700;2023-03-23T14:58:53;15.60;99.90
17152;DHT22;8691;50.828;4.700;2023-03-23T15:01:30;15.30;99.90
17152;DHT22;8691;50.828;4.700;2023-03-23T15:06:47;15.20;99.90
17152;DHT22;8691;50.828;4.700;2023-03-23T15:09:22;15.50;99.90
17152;DHT22;8691;50.828;4.700;2023-03-23T15:12:00;16.00;99.90
17152;DHT22;8691;50.828;4.700;2023-03-23T15:14:42;16.40;99.90
17152;DHT22;8691;50.828;4.700;2023-03-23T15:17:22;16.50;99.90
17152;DHT22;8691;50.828;4.700;2023-03-23T15:19:49;16.50;99.90
17152;DHT22;8691;50.828;4.700;2023-03-23T15:22:29;16.30;99.90
17152;DHT22;8691;50.828;4.700;2023-03-23T15:25:19;16.20;99.90
17152;DHT22;8691;50.828;4.700;2023-03-23T15:27:58;16.20;99.90
17152;DHT22;8691;50.828;4.700;2023-03-23T15:30:35;16.10;99.90
17152;DHT22;8691;50.828;4.700;2023-03-23T15:33:10;16.30;99.90
17152;DHT22;8691;50.828;4.700;2023-03-23T15:35:48;16.40;99.90
17152;DHT22;8691;50.828;4.700;2023-03-23T15:38:25;16.50;99.90
17152;DHT22;8691;50.828;4.700;2023-03-23T15:41:03;16.30;99.90
17152;DHT22;8691;50.828;4.700;2023-03-23T15:43:52;16.20;99.90
17152;DHT22;8691;50.828;4.700;2023-03-23T15:46:27;16.20;99.90
17152;DHT22;8691;50.828;4.700;2023-03-23T15:49:07;16.00;99.90
17152;DHT22;8691;50.828;4.700;2023-03-23T15:51:41;16.00;99.90
17152;DHT22;8691;50.828;4.700;2023-03-23T15:54:17;16.00;99.90
17152;DHT22;8691;50.828;4.700;2023-03-23T15:56:54;15.90;99.90
17152;DHT22;8691;50.828;4.700;2023-03-23T15:59:31;15.80;99.90
17152;DHT22;8691;50.828;4.700;2023-03-23T16:02:10;15.70;99.90
17152;DHT22;8691;50.828;4.700;2023-03-23T16:04:44;15.60;99.90
17152;DHT22;8691;50.828;4.700;2023-03-23T16:07:22;15.50;99.90
17152;DHT22;8691;50.828;4.700;2023-03-23T16:09:57;15.50;99.90
17152;DHT22;8691;50.828;4.700;2023-03-23T16:12:34;15.50;99.90
17152;DHT22;8691;50.828;4.700;2023-03-23T16:15:11;15.50;99.90
17152;DHT22;8691;50.828;4.700;2023-03-23T16:17:47;15.40;99.90
17152;DHT22;8691;50.828;4.700;2023-03-23T16:20:24;15.60;99.90
17152;DHT22;8691;50.828;4.700;2023-03-23T16:23:01;15.50;99.90
17152;DHT22;8691;50.828;4.700;2023-03-23T16:25:37;15.60;99.90
17152;DHT22;8691;50.828;4.700;2023-03-23T16:28:14;15.70;99.90
17152;DHT22;8691;50.828;4.700;2023-03-23T16:30:51;15.70;99.90
17152;DHT22;8691;50.828;4.700;2023-03-23T16:33:28;15.60;99.90
17152;DHT22;8691;50.828;4.700;2023-03-23T16:36:05;15.60;99.90
17152;DHT22;8691;50.828;4.700;2023-03-23T16:38:41;15.60;99.90
17152;DHT22;8691;50.828;4.700;2023-03-23T16:41:18;15.50;99.90
17152;DHT22;8691;50.828;4.700;2023-03-23T16:43:55;15.50;99.90
17152;DHT22;8691;50.828;4.700;2023-03-23T16:46:32;15.40;99.90
17152;DHT22;8691;50.828;4.700;2023-03-23T16:49:08;15.40;99.90
17152;DHT22;8691;50.828;4.700;2023-03-23T16:51:45;15.40;99.90
17152;DHT22;8691;50.828;4.700;2023-03-23T16:54:22;15.50;99.90
17152;DHT22;8691;50.828;4.700;2023-03-23T16:56:58;15.60;99.90
17152;DHT22;8691;50.828;4.700;2023-03-23T16:59:35;15.70;99.90
17152;DHT22;8691;50.828;4.700;2023-03-23T17:02:12;15.60;99.90
17152;DHT22;8691;50.828;4.700;2023-03-23T17:04:48;15.50;99.90
17152;DHT22;8691;50.828;4.700;2023-03-23T17:07:25;15.30;99.90
17152;DHT22;8691;50.828;4.700;2023-03-23T17:10:02;15.10;99.90
17152;DHT22;8691;50.828;4.700;2023-03-23T17:12:39;15.10;99.90
17152;DHT22;8691;50.828;4.700;2023-03-23T17:15:16;15.00;99.90
17152;DHT22;8691;50.828;4.700;2023-03-23T17:17:52;15.00;99.90
17152;DHT22;8691;50.828;4.700;2023-03-23T17:20:29;14.90;99.90
17152;DHT22;8691;50.828;4.700;2023-03-23T17:23:05;14.90;99.90
17152;DHT22;8691;50.828;4.700;2023-03-23T17:25:43;14.80;99.90
17152;DHT22;8691;50.828;4.700;2023-03-23T17:28:20;14.80;99.90
17152;DHT22;8691;50.828;4.700;2023-03-23T17:30:56;14.80;99.90
17152;DHT22;8691;50.828;4.700;2023-03-23T17:33:33;14.70;99.90
17152;DHT22;8691;50.828;4.700;2023-03-23T17:36:10;14.70;99.90
17152;DHT22;8691;50.828;4.700;2023-03-23T17:38:46;14.70;99.90
17152;DHT22;8691;50.828;4.700;2023-03-23T17:41:24;14.70;99.90
17152;DHT22;8691;50.828;4.700;2023-03-23T17:44:01;14.70;99.90
17152;DHT22;8691;50.828;4.700;2023-03-23T17:46:37;14.70;99.90
17152;DHT22;8691;50.828;4.700;2023-03-23T17:49:15;14.60;99.90
17152;DHT22;8691;50.828;4.700;2023-03-23T17:51:51;14.60;99.90
17152;DHT22;8691;50.828;4.700;2023-03-23T17:54:29;14.50;99.90
17152;DHT22;8691;50.828;4.700;2023-03-23T17:57:05;14.50;99.90
17152;DHT22;8691;50.828;4.700;2023-03-23T17:59:42;14.50;99.90
17152;DHT22;8691;50.828;4.700;2023-03-23T18:02:19;14.50;99.90
17152;DHT22;8691;50.828;4.700;2023-03-23T18:04:56;14.50;99.90
17152;DHT22;8691;50.828;4.700;2023-03-23T18:07:32;14.40;99.90
17152;DHT22;8691;50.828;4.700;2023-03-23T18:10:09;14.40;99.90
17152;DHT22;8691;50.828;4.700;2023-03-23T18:12:47;14.40;99.90
17152;DHT22;8691;50.828;4.700;2023-03-23T18:15:22;14.40;99.90
17152;DHT22;8691;50.828;4.700;2023-03-23T18:17:59;14.50;99.90
17152;DHT22;8691;50.828;4.700;2023-03-23T18:20:35;14.40;99.90
17152;DHT22;8691;50.828;4.700;2023-03-23T18:23:12;14.40;99.90
17152;DHT22;8691;50.828;4.700;2023-03-23T18:25:49;14.40;99.90
17152;DHT22;8691;50.828;4.700;2023-03-23T18:28:26;14.40;99.90
17152;DHT22;8691;50.828;4.700;2023-03-23T18:31:03;14.40;99.90